Time;durP1;ratioP1;P1;durP2;ratioP2;P2;SDS_P1;SDS_P2;PMS_P1;PMS_P2;Temp;Humidity;BMP_temperature;BMP_pressure;BME280_temperature;BME280_humidity;BME280_pressure;Samples;Min_cycle;Max_cycle;Signal;HPM_P1;HPM_P2
2022/09/16 00:01:15;;;;;;;;;;;21.40;70.90;;;;;;4995698;28;903;-66
2022/09/16 00:03:40;;;;;;;;;;;21.40;70.90;;;;;;4994264;28;907;-67
2022/09/16 00:06:06;;;;;;;;;;;21.40;70.90;;;;;;4995052;28;1209;-66
2022/09/16 00:08:32;;;;;;;;;;;21.40;70.90;;;;;;4995278;28;1007;-66
2022/09/16 00:11:00;;;;;;;;;;;21.40;70.90;;;;;;4994222;28;952;-67
2022/09/16 00:13:26;;;;;;;;;;;21.40;70.90;;;;;;4991869;28;2175;-67
2022/09/16 00:15:51;;;;;;;;;;;21.40;70.90;;;;;;4991064;28;1914;-67
2022/09/16 00:18:17;;;;;;;;;;;21.40;70.90;;;;;;4995265;28;1328;-66
2022/09/16 00:20:43;;;;;;;;;;;21.40;70.90;;;;;;5010410;28;902;-67
2022/09/16 00:23:09;;;;;;;;;;;21.40;70.90;;;;;;4995378;28;938;-66
2022/09/16 00:25:34;;;;;;;;;;;21.40;70.90;;;;;;4995554;28;1280;-66
2022/09/16 00:28:00;;;;;;;;;;;21.40;70.90;;;;;;4995078;28;927;-67
2022/09/16 00:30:25;;;;;;;;;;;21.40;70.90;;;;;;4994592;28;1070;-67
2022/09/16 00:32:51;;;;;;;;;;;21.40;70.90;;;;;;4994976;28;1161;-66
2022/09/16 00:35:17;;;;;;;;;;;21.40;70.90;;;;;;4994966;28;784;-66
2022/09/16 00:37:42;;;;;;;;;;;21.40;70.90;;;;;;4994548;28;1958;-67
2022/09/16 00:40:08;;;;;;;;;;;21.40;71.00;;;;;;4994211;28;785;-66
2022/09/16 00:42:37;;;;;;;;;;;21.40;70.90;;;;;;4995096;28;816;-66
2022/09/16 00:45:04;;;;;;;;;;;21.40;70.90;;;;;;4995083;28;983;-67
2022/09/16 00:47:40;;;;;;;;;;;21.40;70.90;;;;;;4993779;28;1251;-66
2022/09/16 00:50:16;;;;;;;;;;;21.40;70.90;;;;;;5009117;28;878;-67
2022/09/16 00:52:41;;;;;;;;;;;21.40;70.90;;;;;;5009675;28;887;-66
2022/09/16 00:55:08;;;;;;;;;;;21.40;70.90;;;;;;5009933;28;923;-67
2022/09/16 00:57:33;;;;;;;;;;;21.40;71.00;;;;;;5009691;28;1965;-67
2022/09/16 00:59:59;;;;;;;;;;;21.40;70.90;;;;;;5006916;28;1960;-66
2022/09/16 01:02:24;;;;;;;;;;;21.40;70.90;;;;;;4991031;28;1910;-67
2022/09/16 01:04:51;;;;;;;;;;;21.40;70.90;;;;;;4991825;28;1296;-67
2022/09/16 01:07:17;;;;;;;;;;;21.40;70.90;;;;;;4992299;28;1908;-68
2022/09/16 01:09:42;;;;;;;;;;;21.40;70.90;;;;;;4994939;28;1122;-68
2022/09/16 01:12:08;;;;;;;;;;;21.40;70.90;;;;;;4993175;28;1284;-68
2022/09/16 01:14:52;;;;;;;;;;;21.40;71.00;;;;;;4994009;28;1213;-68
2022/09/16 01:17:28;;;;;;;;;;;21.40;71.00;;;;;;4991632;28;1910;-70
2022/09/16 01:19:57;;;;;;;;;;;21.40;71.00;;;;;;5008839;28;1134;-65
2022/09/16 01:22:22;;;;;;;;;;;21.40;71.00;;;;;;4993940;28;1161;-66
2022/09/16 01:24:48;;;;;;;;;;;21.40;71.00;;;;;;4993598;28;1366;-66
2022/09/16 01:27:19;;;;;;;;;;;21.40;70.90;;;;;;4992480;28;1562;-66
2022/09/16 01:29:45;;;;;;;;;;;21.40;71.00;;;;;;4993268;28;1424;-67
2022/09/16 01:32:10;;;;;;;;;;;21.40;71.00;;;;;;4993911;28;1240;-67
2022/09/16 01:34:56;;;;;;;;;;;21.40;71.00;;;;;;4993672;28;1212;-67
2022/09/16 01:37:40;;;;;;;;;;;21.40;71.00;;;;;;4961873;28;1906;-66
2022/09/16 01:40:27;;;;;;;;;;;21.40;71.00;;;;;;4992665;28;1307;-67
2022/09/16 01:42:56;;;;;;;;;;;21.40;71.00;;;;;;4991362;28;1204;-65
2022/09/16 01:45:34;;;;;;;;;;;21.40;71.00;;;;;;4992425;28;1154;-66
2022/09/16 01:48:23;;;;;;;;;;;21.40;71.00;;;;;;4992332;28;1216;-66
2022/09/16 01:51:07;;;;;;;;;;;21.40;71.00;;;;;;4992606;28;832;-68
2022/09/16 01:53:36;;;;;;;;;;;21.40;71.00;;;;;;4993697;28;973;-68
2022/09/16 01:56:01;;;;;;;;;;;21.40;71.00;;;;;;4992351;28;1956;-67
2022/09/16 01:58:34;;;;;;;;;;;21.40;71.00;;;;;;4993240;28;816;-66
2022/09/16 02:01:01;;;;;;;;;;;21.40;71.00;;;;;;4992586;28;1022;-66
2022/09/16 02:03:27;;;;;;;;;;;21.40;71.00;;;;;;4991989;28;900;-67
2022/09/16 02:05:54;;;;;;;;;;;21.40;71.00;;;;;;4992463;28;1201;-67
2022/09/16 02:08:31;;;;;;;;;;;21.40;71.00;;;;;;4992277;28;1082;-67
2022/09/16 02:10:58;;;;;;;;;;;21.30;70.90;;;;;;4992443;28;903;-67
2022/09/16 02:13:28;;;;;;;;;;;21.40;71.00;;;;;;4992025;28;884;-67
2022/09/16 02:15:54;;;;;;;;;;;21.40;71.00;;;;;;4993053;28;1914;-68
2022/09/16 02:18:24;;;;;;;;;;;21.40;71.00;;;;;;4992069;28;1124;-67
2022/09/16 02:20:49;;;;;;;;;;;21.40;71.00;;;;;;5008582;28;1081;-67
2022/09/16 02:23:18;;;;;;;;;;;21.40;71.00;;;;;;5008388;28;967;-67
2022/09/16 02:25:44;;;;;;;;;;;21.40;71.00;;;;;;5008411;28;1696;-67
2022/09/16 02:28:12;;;;;;;;;;;21.40;71.00;;;;;;4993226;28;922;-68
2022/09/16 02:30:38;;;;;;;;;;;21.40;71.00;;;;;;5007255;28;1260;-67
2022/09/16 02:33:05;;;;;;;;;;;21.40;71.00;;;;;;4992998;28;1185;-66
2022/09/16 02:35:30;;;;;;;;;;;21.40;71.00;;;;;;5008496;28;1224;-66
2022/09/16 02:37:57;;;;;;;;;;;21.40;71.00;;;;;;5008097;28;1964;-66
2022/09/16 02:40:25;;;;;;;;;;;21.40;71.00;;;;;;5008066;28;1076;-66
2022/09/16 02:42:51;;;;;;;;;;;21.30;71.00;;;;;;4993170;28;1045;-66
2022/09/16 02:45:16;;;;;;;;;;;21.40;71.00;;;;;;4993116;28;820;-67
2022/09/16 02:47:53;;;;;;;;;;;21.40;71.00;;;;;;4992839;28;1175;-66
2022/09/16 02:50:19;;;;;;;;;;;21.30;71.00;;;;;;5007672;28;784;-66
2022/09/16 02:52:46;;;;;;;;;;;21.40;71.00;;;;;;4993098;28;979;-66
2022/09/16 02:55:19;;;;;;;;;;;21.40;71.00;;;;;;5007977;28;792;-65
2022/09/16 02:57:45;;;;;;;;;;;21.30;71.00;;;;;;5007719;28;1949;-65
2022/09/16 03:00:10;;;;;;;;;;;21.40;71.00;;;;;;4992639;28;847;-66
2022/09/16 03:02:36;;;;;;;;;;;21.40;71.00;;;;;;4993185;28;801;-66
2022/09/16 03:05:02;;;;;;;;;;;21.30;70.90;;;;;;4991641;28;959;-66
2022/09/16 03:07:27;;;;;;;;;;;21.30;71.00;;;;;;4992706;28;1216;-66
2022/09/16 03:09:53;;;;;;;;;;;21.40;71.10;;;;;;4992468;28;1065;-67
2022/09/16 03:12:22;;;;;;;;;;;21.40;71.00;;;;;;4992643;28;1006;-67
2022/09/16 03:15:06;;;;;;;;;;;21.40;71.10;;;;;;4992914;28;820;-66
2022/09/16 03:17:37;;;;;;;;;;;21.40;71.00;;;;;;4992254;28;1907;-66
2022/09/16 03:20:16;;;;;;;;;;;21.30;71.00;;;;;;4992589;28;820;-66
2022/09/16 03:22:41;;;;;;;;;;;21.40;71.00;;;;;;4992389;28;769;-66
2022/09/16 03:25:09;;;;;;;;;;;21.40;71.00;;;;;;4993089;28;962;-66
2022/09/16 03:27:40;;;;;;;;;;;21.40;71.00;;;;;;4991002;28;1217;-66
2022/09/16 03:30:06;;;;;;;;;;;21.40;71.10;;;;;;4991076;28;777;-66
2022/09/16 03:32:50;;;;;;;;;;;21.40;71.00;;;;;;4987996;28;1260;-66
2022/09/16 03:35:19;;;;;;;;;;;21.40;71.00;;;;;;4972467;28;1241;-66
2022/09/16 03:37:44;;;;;;;;;;;21.40;71.00;;;;;;4972880;28;1898;-66
2022/09/16 03:40:11;;;;;;;;;;;21.40;71.00;;;;;;4971617;28;1097;-66
2022/09/16 03:42:37;;;;;;;;;;;21.40;71.00;;;;;;4974941;28;1207;-66
2022/09/16 03:45:03;;;;;;;;;;;21.40;71.00;;;;;;4975744;28;871;-66
2022/09/16 03:47:28;;;;;;;;;;;21.40;71.00;;;;;;4976385;28;1217;-66
2022/09/16 03:49:54;;;;;;;;;;;21.40;71.10;;;;;;4975984;28;891;-66
2022/09/16 03:52:19;;;;;;;;;;;21.40;71.00;;;;;;4975331;28;861;-67
2022/09/16 03:54:45;;;;;;;;;;;21.40;71.00;;;;;;4975395;28;1422;-67
2022/09/16 03:57:10;;;;;;;;;;;21.40;71.00;;;;;;4976244;28;1962;-67
2022/09/16 03:59:36;;;;;;;;;;;21.40;71.10;;;;;;4976029;28;887;-67
2022/09/16 04:02:01;;;;;;;;;;;21.40;71.00;;;;;;4976184;28;833;-70
2022/09/16 04:04:26;;;;;;;;;;;21.30;71.00;;;;;;4976449;28;805;-67
2022/09/16 04:06:52;;;;;;;;;;;21.30;71.00;;;;;;4976069;28;1227;-67
2022/09/16 04:09:17;;;;;;;;;;;21.40;71.00;;;;;;4975920;28;1065;-66
2022/09/16 04:11:43;;;;;;;;;;;21.40;71.00;;;;;;4976167;28;853;-66
2022/09/16 04:14:09;;;;;;;;;;;21.40;71.00;;;;;;4974982;28;1022;-66
2022/09/16 04:16:35;;;;;;;;;;;21.40;71.00;;;;;;4977545;28;1966;-66
2022/09/16 04:19:00;;;;;;;;;;;21.40;71.00;;;;;;4994969;28;911;-66
2022/09/16 04:21:26;;;;;;;;;;;21.40;71.00;;;;;;4994205;28;928;-66
2022/09/16 04:23:53;;;;;;;;;;;21.30;71.00;;;;;;4995834;28;829;-66
2022/09/16 04:26:18;;;;;;;;;;;21.30;71.00;;;;;;4994073;28;1314;-67
2022/09/16 04:28:44;;;;;;;;;;;21.30;71.00;;;;;;4994503;28;871;-66
2022/09/16 04:31:10;;;;;;;;;;;21.40;71.10;;;;;;4995253;28;1213;-67
2022/09/16 04:33:35;;;;;;;;;;;21.30;71.00;;;;;;4995079;28;789;-66
2022/09/16 04:36:05;;;;;;;;;;;21.30;71.00;;;;;;5010222;28;1967;-67
2022/09/16 04:38:30;;;;;;;;;;;21.40;71.10;;;;;;5009879;28;867;-66
2022/09/16 04:41:02;;;;;;;;;;;21.40;71.10;;;;;;4995110;28;781;-67
2022/09/16 04:43:28;;;;;;;;;;;21.30;71.00;;;;;;4995085;28;710;-67
2022/09/16 04:45:53;;;;;;;;;;;21.40;71.00;;;;;;4995140;28;1201;-66
2022/09/16 04:48:19;;;;;;;;;;;21.40;71.10;;;;;;4994336;28;1081;-66
2022/09/16 04:50:44;;;;;;;;;;;21.40;71.00;;;;;;4995022;28;843;-66
2022/09/16 04:53:10;;;;;;;;;;;21.30;71.00;;;;;;4994048;28;940;-66
2022/09/16 04:55:36;;;;;;;;;;;21.40;71.00;;;;;;4994651;28;1214;-66
2022/09/16 04:58:02;;;;;;;;;;;21.40;71.00;;;;;;4994794;28;1961;-66
2022/09/16 05:00:27;;;;;;;;;;;21.30;71.00;;;;;;5009070;28;907;-66
2022/09/16 05:02:53;;;;;;;;;;;21.30;71.00;;;;;;4994624;28;1157;-66
2022/09/16 05:05:19;;;;;;;;;;;21.40;71.00;;;;;;4991806;28;2468;-68
2022/09/16 05:07:45;;;;;;;;;;;21.30;71.00;;;;;;4994214;28;1556;-68
2022/09/16 05:10:10;;;;;;;;;;;21.30;71.00;;;;;;4993904;28;1666;-67
2022/09/16 05:12:36;;;;;;;;;;;21.40;71.10;;;;;;4994556;28;1363;-67
2022/09/16 05:15:01;;;;;;;;;;;21.30;71.00;;;;;;4994541;28;1325;-70
2022/09/16 05:17:30;;;;;;;;;;;21.40;71.10;;;;;;4994448;28;1962;-69
2022/09/16 05:19:56;;;;;;;;;;;21.30;71.00;;;;;;4992639;28;1385;-69
2022/09/16 05:22:21;;;;;;;;;;;21.30;71.00;;;;;;5009819;28;822;-70
2022/09/16 05:24:46;;;;;;;;;;;21.30;71.00;;;;;;4994189;28;930;-69
2022/09/16 05:27:12;;;;;;;;;;;21.40;71.10;;;;;;4994281;28;1590;-69
2022/09/16 05:29:37;;;;;;;;;;;21.30;71.00;;;;;;4993399;28;1381;-69
2022/09/16 05:32:03;;;;;;;;;;;21.30;71.00;;;;;;4993985;28;1414;-69
2022/09/16 05:34:28;;;;;;;;;;;21.40;71.10;;;;;;4994412;28;873;-68
2022/09/16 05:36:54;;;;;;;;;;;21.40;71.10;;;;;;4994170;28;1911;-68
2022/09/16 05:39:20;;;;;;;;;;;21.40;71.10;;;;;;5008748;28;965;-68
2022/09/16 05:41:46;;;;;;;;;;;21.30;71.00;;;;;;4986180;28;1479;-69
2022/09/16 05:44:11;;;;;;;;;;;21.30;71.00;;;;;;4984302;28;2161;-70
2022/09/16 05:46:39;;;;;;;;;;;21.40;71.00;;;;;;4987697;28;1543;-71
2022/09/16 05:49:04;;;;;;;;;;;21.40;71.80;;;;;;4991327;28;1628;-71
2022/09/16 05:51:31;;;;;;;;;;;21.30;70.90;;;;;;4992426;28;1093;-72
2022/09/16 05:53:57;;;;;;;;;;;21.40;71.00;;;;;;4992443;28;832;-72
2022/09/16 05:56:24;;;;;;;;;;;21.40;71.00;;;;;;4991946;28;1902;-71
2022/09/16 05:58:50;;;;;;;;;;;21.40;71.00;;;;;;4989667;28;891;-72
2022/09/16 06:01:16;;;;;;;;;;;21.40;71.00;;;;;;4990948;28;1022;-71
2022/09/16 06:03:42;;;;;;;;;;;21.40;71.00;;;;;;4993073;28;998;-71
2022/09/16 06:06:14;;;;;;;;;;;21.40;71.00;;;;;;4990420;28;1212;-71
2022/09/16 06:08:39;;;;;;;;;;;21.40;71.00;;;;;;4990919;28;830;-71
2022/09/16 06:11:05;;;;;;;;;;;21.40;71.10;;;;;;4991982;28;895;-71
2022/09/16 06:13:31;;;;;;;;;;;21.40;71.10;;;;;;4990340;28;1008;-70
2022/09/16 06:15:56;;;;;;;;;;;21.30;71.00;;;;;;4991560;28;1968;-71
2022/09/16 06:18:22;;;;;;;;;;;21.40;71.10;;;;;;4992287;28;1516;-70
2022/09/16 06:20:48;;;;;;;;;;;21.40;71.00;;;;;;5008472;28;1017;-72
2022/09/16 06:23:13;;;;;;;;;;;21.40;71.00;;;;;;4993604;28;879;-70
2022/09/16 06:25:39;;;;;;;;;;;21.40;71.00;;;;;;5008422;28;1228;-70
2022/09/16 06:28:04;;;;;;;;;;;21.40;71.10;;;;;;5008638;28;804;-70
2022/09/16 06:30:30;;;;;;;;;;;21.40;71.10;;;;;;4992374;28;811;-70
2022/09/16 06:32:55;;;;;;;;;;;21.40;71.10;;;;;;4993257;28;1542;-71
2022/09/16 06:35:21;;;;;;;;;;;21.40;71.10;;;;;;4993452;28;1018;-70
2022/09/16 06:37:46;;;;;;;;;;;21.30;71.00;;;;;;4993161;28;1972;-70
2022/09/16 06:40:11;;;;;;;;;;;21.40;71.10;;;;;;4992503;28;820;-69
2022/09/16 06:42:37;;;;;;;;;;;21.40;71.00;;;;;;4993100;28;831;-69
2022/09/16 06:45:03;;;;;;;;;;;21.40;71.10;;;;;;4993208;28;852;-69
2022/09/16 06:47:29;;;;;;;;;;;21.40;71.10;;;;;;4991619;28;1221;-68
2022/09/16 06:49:55;;;;;;;;;;;21.40;71.00;;;;;;4990727;28;2292;-69
2022/09/16 06:52:21;;;;;;;;;;;21.40;71.00;;;;;;4992922;28;1087;-69
2022/09/16 06:54:46;;;;;;;;;;;21.30;70.90;;;;;;4975636;28;1296;-69
2022/09/16 06:57:12;;;;;;;;;;;21.40;71.00;;;;;;4992311;28;1907;-69
2022/09/16 06:59:37;;;;;;;;;;;21.40;71.00;;;;;;4992217;28;1095;-69
2022/09/16 07:02:03;;;;;;;;;;;21.40;71.00;;;;;;4992929;28;823;-69
2022/09/16 07:04:28;;;;;;;;;;;21.40;71.00;;;;;;4992861;28;1145;-69
2022/09/16 07:06:56;;;;;;;;;;;21.40;71.00;;;;;;4992469;28;1300;-69
2022/09/16 07:09:22;;;;;;;;;;;21.40;71.00;;;;;;4992901;28;922;-69
2022/09/16 07:11:48;;;;;;;;;;;21.40;71.00;;;;;;4991463;28;867;-69
2022/09/16 07:14:13;;;;;;;;;;;21.40;71.00;;;;;;4993385;28;698;-69
2022/09/16 07:16:38;;;;;;;;;;;21.40;71.00;;;;;;4993022;28;1895;-69
2022/09/16 07:19:04;;;;;;;;;;;21.40;71.00;;;;;;4996212;28;784;-69
2022/09/16 07:21:29;;;;;;;;;;;21.40;71.00;;;;;;4996667;28;932;-70
2022/09/16 07:23:56;;;;;;;;;;;21.40;71.00;;;;;;4996379;28;1204;-69
2022/09/16 07:26:25;;;;;;;;;;;21.40;71.00;;;;;;4994663;28;1309;-69
2022/09/16 07:28:50;;;;;;;;;;;21.30;70.90;;;;;;4994808;28;812;-69
2022/09/16 07:31:20;;;;;;;;;;;21.40;71.00;;;;;;4996360;28;1275;-69
2022/09/16 07:33:47;;;;;;;;;;;21.40;71.00;;;;;;4996398;28;926;-69
2022/09/16 07:36:13;;;;;;;;;;;21.40;71.00;;;;;;5011212;28;1898;-69
2022/09/16 07:38:39;;;;;;;;;;;21.40;71.80;;;;;;4995496;28;644;-70
2022/09/16 07:41:05;;;;;;;;;;;21.40;71.00;;;;;;4996357;28;861;-69
2022/09/16 07:43:30;;;;;;;;;;;21.40;71.10;;;;;;5011195;28;795;-69
2022/09/16 07:45:56;;;;;;;;;;;21.40;71.10;;;;;;4996138;28;1287;-69
2022/09/16 07:48:21;;;;;;;;;;;21.40;71.10;;;;;;4995192;28;962;-69
2022/09/16 07:50:54;;;;;;;;;;;21.40;71.10;;;;;;4995925;28;832;-69
2022/09/16 07:53:20;;;;;;;;;;;21.40;71.10;;;;;;4995713;28;841;-69
2022/09/16 07:55:45;;;;;;;;;;;21.40;71.10;;;;;;4995795;28;1966;-69
2022/09/16 07:58:10;;;;;;;;;;;21.30;71.00;;;;;;4995935;28;982;-69
2022/09/16 08:00:36;;;;;;;;;;;21.40;71.10;;;;;;4995735;28;883;-69
2022/09/16 08:03:01;;;;;;;;;;;21.40;71.10;;;;;;4995684;28;876;-69
2022/09/16 08:05:27;;;;;;;;;;;21.40;71.10;;;;;;4995867;28;1294;-71
2022/09/16 08:07:52;;;;;;;;;;;21.40;71.10;;;;;;4995622;28;987;-71
2022/09/16 08:10:18;;;;;;;;;;;21.40;71.10;;;;;;4995455;28;805;-71
2022/09/16 08:12:45;;;;;;;;;;;21.40;71.10;;;;;;5010507;28;804;-71
2022/09/16 08:15:11;;;;;;;;;;;21.40;71.20;;;;;;4995418;28;1089;-71
2022/09/16 08:17:36;;;;;;;;;;;21.40;71.20;;;;;;4995212;28;1915;-71
2022/09/16 08:20:04;;;;;;;;;;;21.40;71.20;;;;;;4994185;28;1022;-71
2022/09/16 08:22:30;;;;;;;;;;;21.40;71.10;;;;;;4995345;28;788;-71
2022/09/16 08:24:56;;;;;;;;;;;21.40;71.10;;;;;;4995537;28;808;-71
2022/09/16 08:27:21;;;;;;;;;;;21.40;71.20;;;;;;4994276;28;1206;-69
2022/09/16 08:29:47;;;;;;;;;;;21.40;71.10;;;;;;4994692;28;1192;-71
2022/09/16 08:32:13;;;;;;;;;;;21.40;71.10;;;;;;4995269;28;1306;-70
2022/09/16 08:34:39;;;;;;;;;;;21.40;71.10;;;;;;4995383;28;804;-71
2022/09/16 08:37:04;;;;;;;;;;;21.40;71.00;;;;;;4993203;28;1973;-71
2022/09/16 08:39:30;;;;;;;;;;;21.40;71.00;;;;;;4993854;28;804;-70
2022/09/16 08:41:55;;;;;;;;;;;21.40;71.70;;;;;;4995621;28;926;-71
2022/09/16 08:44:33;;;;;;;;;;;21.40;71.00;;;;;;4995236;28;789;-71
2022/09/16 08:47:00;;;;;;;;;;;21.40;71.10;;;;;;4993704;28;1212;-70
2022/09/16 08:49:33;;;;;;;;;;;21.40;71.00;;;;;;4994604;28;879;-70
2022/09/16 08:51:59;;;;;;;;;;;21.40;71.00;;;;;;4993530;28;986;-71
2022/09/16 08:54:36;;;;;;;;;;;21.40;71.00;;;;;;4994756;28;785;-70
2022/09/16 08:57:02;;;;;;;;;;;21.40;71.00;;;;;;4993445;28;1960;-70
2022/09/16 08:59:34;;;;;;;;;;;21.40;71.10;;;;;;4993212;28;796;-71
2022/09/16 09:02:06;;;;;;;;;;;21.40;71.00;;;;;;4993593;28;1074;-71
2022/09/16 09:04:31;;;;;;;;;;;21.40;71.10;;;;;;4994937;28;840;-70
2022/09/16 09:07:15;;;;;;;;;;;21.40;71.20;;;;;;4993955;28;1223;-70
2022/09/16 09:09:59;;;;;;;;;;;21.40;72.00;;;;;;4994234;28;962;-71
2022/09/16 09:12:31;;;;;;;;;;;21.40;71.20;;;;;;4994470;28;978;-71
2022/09/16 09:15:02;;;;;;;;;;;21.40;71.30;;;;;;4994114;28;879;-70
2022/09/16 09:17:30;;;;;;;;;;;21.40;71.30;;;;;;4994511;28;1954;-70
2022/09/16 09:20:13;;;;;;;;;;;21.40;71.20;;;;;;5009234;28;1185;-72
2022/09/16 09:22:57;;;;;;;;;;;21.40;71.20;;;;;;5006088;28;1197;-70
2022/09/16 09:25:32;;;;;;;;;;;21.40;71.20;;;;;;4974988;28;817;-70
2022/09/16 09:28:09;;;;;;;;;;;21.40;71.20;;;;;;4974847;28;948;-70
2022/09/16 09:30:35;;;;;;;;;;;21.40;71.20;;;;;;4974846;28;883;-70
2022/09/16 09:33:10;;;;;;;;;;;21.40;71.20;;;;;;4988888;28;1213;-70
2022/09/16 09:35:40;;;;;;;;;;;21.40;71.10;;;;;;4993661;28;1220;-70
2022/09/16 09:38:21;;;;;;;;;;;21.40;71.10;;;;;;4992552;28;1973;-70
2022/09/16 09:40:51;;;;;;;;;;;21.40;71.10;;;;;;4994121;28;896;-70
2022/09/16 09:43:34;;;;;;;;;;;21.40;71.10;;;;;;4993221;28;824;-69
2022/09/16 09:46:11;;;;;;;;;;;21.40;71.10;;;;;;4992617;28;1201;-69
2022/09/16 09:48:38;;;;;;;;;;;21.40;71.10;;;;;;4992242;28;1030;-69
2022/09/16 09:51:05;;;;;;;;;;;21.40;71.10;;;;;;4992679;28;689;-69
2022/09/16 09:53:32;;;;;;;;;;;21.40;71.10;;;;;;4989810;28;2020;-70
2022/09/16 09:55:59;;;;;;;;;;;21.40;71.10;;;;;;4992140;28;1957;-70
2022/09/16 09:58:27;;;;;;;;;;;21.40;71.10;;;;;;4991692;28;854;-70
2022/09/16 10:00:56;;;;;;;;;;;21.40;71.10;;;;;;4993592;28;830;-69
2022/09/16 10:03:21;;;;;;;;;;;21.40;71.10;;;;;;4993588;28;811;-69
2022/09/16 10:05:47;;;;;;;;;;;21.40;71.10;;;;;;4991693;28;1276;-69
2022/09/16 10:08:24;;;;;;;;;;;21.40;71.10;;;;;;4992921;28;1099;-69
2022/09/16 10:10:54;;;;;;;;;;;21.40;71.10;;;;;;4993294;28;1475;-69
2022/09/16 10:13:19;;;;;;;;;;;21.40;71.10;;;;;;4992139;28;899;-69
2022/09/16 10:15:45;;;;;;;;;;;21.40;71.10;;;;;;4992126;28;1291;-69
2022/09/16 10:18:20;;;;;;;;;;;21.40;71.10;;;;;;4992850;28;1973;-69
2022/09/16 10:20:53;;;;;;;;;;;21.40;71.10;;;;;;4992230;28;705;-69
2022/09/16 10:23:19;;;;;;;;;;;21.40;71.20;;;;;;4991357;28;1348;-69
2022/09/16 10:25:45;;;;;;;;;;;21.40;71.20;;;;;;4992129;28;1295;-69
2022/09/16 10:28:18;;;;;;;;;;;21.40;71.10;;;;;;4991409;28;883;-69
2022/09/16 10:30:45;;;;;;;;;;;21.40;71.10;;;;;;4991820;28;1151;-69
2022/09/16 10:33:12;;;;;;;;;;;21.40;71.10;;;;;;4992557;28;1213;-69
2022/09/16 10:35:37;;;;;;;;;;;21.40;71.10;;;;;;4993142;28;1301;-69
2022/09/16 10:38:20;;;;;;;;;;;21.40;71.10;;;;;;4991613;28;1961;-69
2022/09/16 10:40:56;;;;;;;;;;;21.40;71.00;;;;;;4993271;28;815;-69
2022/09/16 10:43:22;;;;;;;;;;;21.40;70.90;;;;;;4991539;28;1035;-69
2022/09/16 10:45:49;;;;;;;;;;;21.40;71.00;;;;;;4992867;28;1218;-69
2022/09/16 10:48:15;;;;;;;;;;;21.40;71.10;;;;;;4991376;28;832;-69
2022/09/16 10:50:59;;;;;;;;;;;21.40;71.10;;;;;;4993163;28;950;-69
2022/09/16 10:53:37;;;;;;;;;;;21.40;71.10;;;;;;4996841;28;986;-69
2022/09/16 10:56:14;;;;;;;;;;;21.40;71.00;;;;;;4995712;28;1975;-69
2022/09/16 10:58:40;;;;;;;;;;;21.40;71.10;;;;;;4995178;28;975;-69
2022/09/16 11:01:11;;;;;;;;;;;21.40;71.20;;;;;;4995671;28;868;-70
2022/09/16 11:03:53;;;;;;;;;;;21.40;71.20;;;;;;4996870;28;872;-69
2022/09/16 11:06:23;;;;;;;;;;;21.40;71.40;;;;;;4994873;28;1209;-69
2022/09/16 11:09:04;;;;;;;;;;;21.40;71.00;;;;;;4995117;28;1047;-70
2022/09/16 11:11:43;;;;;;;;;;;21.40;71.20;;;;;;4996571;28;832;-70
2022/09/16 11:14:15;;;;;;;;;;;21.40;71.50;;;;;;4993190;28;2409;-69
2022/09/16 11:16:40;;;;;;;;;;;21.40;71.70;;;;;;4995889;28;1966;-70
2022/09/16 11:19:29;;;;;;;;;;;21.40;71.80;;;;;;4995976;28;1252;-69
2022/09/16 11:22:01;;;;;;;;;;;21.40;71.80;;;;;;4976215;28;2091;-70
2022/09/16 11:24:33;;;;;;;;;;;21.40;71.80;;;;;;5011702;28;1099;-69
2022/09/16 11:27:18;;;;;;;;;;;21.40;71.90;;;;;;4995682;28;1200;-70
2022/09/16 11:29:43;;;;;;;;;;;21.40;72.00;;;;;;4986570;28;2429;-69
2022/09/16 11:32:12;;;;;;;;;;;21.50;72.00;;;;;;4994122;28;2111;-70
2022/09/16 11:34:45;;;;;;;;;;;21.40;72.10;;;;;;4991763;28;1147;-70
2022/09/16 11:37:30;;;;;;;;;;;21.50;72.10;;;;;;4992828;28;1899;-70
2022/09/16 11:40:05;;;;;;;;;;;21.50;72.10;;;;;;4995304;28;2518;-70
2022/09/16 11:42:51;;;;;;;;;;;21.50;72.20;;;;;;4995746;28;1119;-70
2022/09/16 11:45:23;;;;;;;;;;;21.50;72.10;;;;;;4995142;28;1148;-70
2022/09/16 11:48:02;;;;;;;;;;;21.50;72.10;;;;;;4995737;28;1299;-69
2022/09/16 11:50:44;;;;;;;;;;;21.50;72.10;;;;;;4987510;28;1148;-70
2022/09/16 11:53:14;;;;;;;;;;;21.50;72.20;;;;;;4994572;28;792;-69
2022/09/16 11:55:48;;;;;;;;;;;21.50;72.20;;;;;;4994389;28;1215;-70
2022/09/16 11:58:19;;;;;;;;;;;21.50;72.20;;;;;;4995339;28;1887;-70
2022/09/16 12:00:45;;;;;;;;;;;21.50;72.20;;;;;;4994303;28;1080;-70
2022/09/16 12:03:12;;;;;;;;;;;21.50;72.30;;;;;;4995435;28;1147;-70
2022/09/16 12:05:41;;;;;;;;;;;21.50;72.30;;;;;;4995243;28;1213;-70
2022/09/16 12:08:06;;;;;;;;;;;21.50;72.30;;;;;;4994382;28;1034;-70
2022/09/16 12:10:42;;;;;;;;;;;21.50;72.20;;;;;;4995191;28;851;-70
2022/09/16 12:13:09;;;;;;;;;;;21.50;72.10;;;;;;4995436;28;908;-70
2022/09/16 12:15:55;;;;;;;;;;;21.50;72.10;;;;;;4993473;28;1816;-70
2022/09/16 12:18:21;;;;;;;;;;;21.50;72.10;;;;;;4994659;28;1170;-70
2022/09/16 12:20:57;;;;;;;;;;;21.50;72.00;;;;;;5010481;28;913;-70
2022/09/16 12:23:23;;;;;;;;;;;21.50;72.00;;;;;;5010529;28;815;-71
2022/09/16 12:25:58;;;;;;;;;;;21.50;72.00;;;;;;5010560;28;1217;-70
2022/09/16 12:28:25;;;;;;;;;;;21.50;72.00;;;;;;4994882;28;978;-70
2022/09/16 12:31:02;;;;;;;;;;;21.50;72.00;;;;;;5010493;28;1064;-70
2022/09/16 12:33:30;;;;;;;;;;;21.50;72.00;;;;;;4993459;28;1274;-70
2022/09/16 12:36:03;;;;;;;;;;;21.50;72.00;;;;;;4993374;28;1225;-70
2022/09/16 12:38:28;;;;;;;;;;;21.50;72.10;;;;;;4992994;28;1022;-71
2022/09/16 12:40:59;;;;;;;;;;;21.50;71.90;;;;;;4995010;28;835;-71
2022/09/16 12:43:43;;;;;;;;;;;21.50;71.90;;;;;;4993999;28;887;-71
2022/09/16 12:46:33;;;;;;;;;;;21.50;71.90;;;;;;4994979;28;1213;-70
2022/09/16 12:49:18;;;;;;;;;;;21.50;71.90;;;;;;4993351;28;820;-70
2022/09/16 12:51:57;;;;;;;;;;;21.50;71.90;;;;;;4994213;28;804;-70
2022/09/16 12:54:41;;;;;;;;;;;21.50;71.90;;;;;;4974388;28;2140;-70
2022/09/16 12:57:07;;;;;;;;;;;21.50;71.90;;;;;;4993073;28;1902;-69
2022/09/16 12:59:54;;;;;;;;;;;21.50;71.90;;;;;;4993082;28;867;-70
2022/09/16 13:02:21;;;;;;;;;;;21.50;71.90;;;;;;4993438;28;793;-70
2022/09/16 13:04:47;;;;;;;;;;;21.50;71.90;;;;;;4992973;28;828;-71
2022/09/16 13:07:20;;;;;;;;;;;21.40;71.80;;;;;;4992865;28;1303;-70
2022/09/16 13:09:46;;;;;;;;;;;21.50;71.90;;;;;;5008481;23;3794;-67
2022/09/16 13:12:18;;;;;;;;;;;21.50;71.90;;;;;;5021944;28;1452;-68
2022/09/16 13:14:44;;;;;;;;;;;21.40;71.90;;;;;;5033183;28;780;-67
2022/09/16 13:17:09;;;;;;;;;;;21.50;71.90;;;;;;5052963;28;1906;-68
2022/09/16 13:19:40;;;;;;;;;;;21.50;71.90;;;;;;5033480;28;1213;-67
2022/09/16 13:22:12;;;;;;;;;;;21.50;71.90;;;;;;5014154;28;2212;-68
2022/09/16 13:24:39;;;;;;;;;;;21.50;71.90;;;;;;5016044;28;2019;-68
2022/09/16 13:27:23;;;;;;;;;;;21.40;71.80;;;;;;5014320;28;1986;-67
2022/09/16 13:29:48;;;;;;;;;;;21.40;71.80;;;;;;5031684;28;1282;-68
2022/09/16 13:32:24;;;;;;;;;;;21.50;71.90;;;;;;5004122;28;2095;-68
2022/09/16 13:34:59;;;;;;;;;;;21.50;71.90;;;;;;5014460;28;1143;-68
2022/09/16 13:37:25;;;;;;;;;;;21.50;71.90;;;;;;5014671;28;1957;-67
2022/09/16 13:39:51;;;;;;;;;;;21.50;71.90;;;;;;4997725;28;1231;-68
2022/09/16 13:42:19;;;;;;;;;;;21.50;71.90;;;;;;5032456;28;1272;-67
2022/09/16 13:44:44;;;;;;;;;;;21.50;71.90;;;;;;5032084;28;871;-69
2022/09/16 13:47:10;;;;;;;;;;;21.50;71.90;;;;;;5014562;28;887;-68
2022/09/16 13:49:37;;;;;;;;;;;21.50;71.80;;;;;;5031643;28;1271;-67
2022/09/16 13:52:08;;;;;;;;;;;21.50;71.90;;;;;;4998090;28;1176;-68
2022/09/16 13:54:36;;;;;;;;;;;21.50;71.80;;;;;;5011497;28;1100;-68
2022/09/16 13:57:08;;;;;;;;;;;21.50;71.80;;;;;;4996029;28;1969;-68
2022/09/16 13:59:45;;;;;;;;;;;21.40;71.80;;;;;;5013297;28;1286;-68
2022/09/16 14:02:26;;;;;;;;;;;21.50;71.80;;;;;;5012282;28;879;-68
2022/09/16 14:04:57;;;;;;;;;;;21.40;71.80;;;;;;5028346;28;1888;-68
2022/09/16 14:07:35;;;;;;;;;;;21.50;71.80;;;;;;4999425;28;1605;-68
2022/09/16 14:10:03;;;;;;;;;;;21.50;71.90;;;;;;5028416;28;1368;-68
2022/09/16 14:12:42;;;;;;;;;;;21.50;71.90;;;;;;5014051;28;1111;-68
2022/09/16 14:15:08;;;;;;;;;;;21.50;71.90;;;;;;5345893;22;3745;-69
2022/09/16 14:17:37;;;;;;;;;;;21.50;71.80;;;;;;4971049;28;1969;-68
2022/09/16 14:20:02;;;;;;;;;;;21.50;71.90;;;;;;4970686;28;1308;-68
2022/09/16 14:22:29;;;;;;;;;;;21.50;71.90;;;;;;4955240;28;895;-68
2022/09/16 14:24:54;;;;;;;;;;;21.40;71.80;;;;;;4972309;28;842;-68
2022/09/16 14:27:20;;;;;;;;;;;21.50;71.90;;;;;;4956940;28;1269;-67
2022/09/16 14:29:54;;;;;;;;;;;21.40;71.70;;;;;;4990150;28;1284;-68
2022/09/16 14:32:20;;;;;;;;;;;21.50;71.80;;;;;;4969699;28;2073;-67
2022/09/16 14:34:45;;;;;;;;;;;21.50;71.90;;;;;;4973526;28;1253;-67
2022/09/16 14:37:11;;;;;;;;;;;21.40;71.70;;;;;;4972889;28;1903;-67
2022/09/16 14:39:36;;;;;;;;;;;21.40;71.70;;;;;;4956987;28;1398;-68
2022/09/16 14:42:04;;;;;;;;;;;21.50;71.80;;;;;;4973328;28;1468;-68
2022/09/16 14:44:36;;;;;;;;;;;21.40;71.80;;;;;;4973329;28;1213;-68
2022/09/16 14:47:06;;;;;;;;;;;21.50;71.80;;;;;;4973337;28;1190;-67